sensor_id;sensor_type;location;lat;lon;timestamp;temperature;humidity
20504;DHT22;10410;51.046;6.980;2023-05-10T00:01:57;12.90;99.90
20504;DHT22;10410;51.046;6.980;2023-05-10T00:08:58;12.90;99.90
20504;DHT22;10410;51.046;6.980;2023-05-10T00:15:58;12.90;99.90
20504;DHT22;10410;51.046;6.980;2023-05-10T00:22:59;12.90;99.90
20504;DHT22;10410;51.046;6.980;2023-05-10T00:29:59;12.90;99.90
20504;DHT22;10410;51.046;6.980;2023-05-10T00:37:00;12.90;99.90
20504;DHT22;10410;51.046;6.980;2023-05-10T00:44:00;13.00;99.90
20504;DHT22;10410;51.046;6.980;2023-05-10T00:51:02;13.00;99.90
20504;DHT22;10410;51.046;6.980;2023-05-10T00:58:04;13.00;99.90
20504;DHT22;10410;51.046;6.980;2023-05-10T01:05:05;13.00;99.90
20504;DHT22;10410;51.046;6.980;2023-05-10T01:12:06;13.00;99.90
20504;DHT22;10410;51.046;6.980;2023-05-10T01:19:16;13.00;99.90
20504;DHT22;10410;51.046;6.980;2023-05-10T01:48:05;13.00;99.90
20504;DHT22;10410;51.046;6.980;2023-05-10T01:55:09;13.00;99.90
20504;DHT22;10410;51.046;6.980;2023-05-10T02:02:11;12.90;99.90
20504;DHT22;10410;51.046;6.980;2023-05-10T02:09:13;12.80;99.90
20504;DHT22;10410;51.046;6.980;2023-05-10T02:16:16;12.70;99.90
20504;DHT22;10410;51.046;6.980;2023-05-10T02:23:17;12.70;99.90
20504;DHT22;10410;51.046;6.980;2023-05-10T02:30:19;12.60;99.90
20504;DHT22;10410;51.046;6.980;2023-05-10T02:37:24;12.60;99.90
20504;DHT22;10410;51.046;6.980;2023-05-10T02:44:26;12.60;99.90
20504;DHT22;10410;51.046;6.980;2023-05-10T02:51:30;12.60;99.90
20504;DHT22;10410;51.046;6.980;2023-05-10T02:58:33;12.60;99.90
20504;DHT22;10410;51.046;6.980;2023-05-10T03:05:34;12.60;99.90
20504;DHT22;10410;51.046;6.980;2023-05-10T03:13:05;12.70;99.90
20504;DHT22;10410;51.046;6.980;2023-05-10T03:20:09;12.70;99.90
20504;DHT22;10410;51.046;6.980;2023-05-10T03:27:13;12.70;99.90
20504;DHT22;10410;51.046;6.980;2023-05-10T03:34:15;12.80;99.90
20504;DHT22;10410;51.046;6.980;2023-05-10T03:41:15;12.90;99.90
20504;DHT22;10410;51.046;6.980;2023-05-10T03:48:16;12.90;99.90
20504;DHT22;10410;51.046;6.980;2023-05-10T03:55:16;12.90;99.90
20504;DHT22;10410;51.046;6.980;2023-05-10T04:02:17;12.90;99.90
20504;DHT22;10410;51.046;6.980;2023-05-10T04:09:18;13.00;99.90
20504;DHT22;10410;51.046;6.980;2023-05-10T04:16:18;12.90;99.90
20504;DHT22;10410;51.046;6.980;2023-05-10T04:23:19;13.00;99.90
20504;DHT22;10410;51.046;6.980;2023-05-10T04:30:19;13.00;99.90
20504;DHT22;10410;51.046;6.980;2023-05-10T04:37:20;13.00;99.90
20504;DHT22;10410;51.046;6.980;2023-05-10T04:44:21;13.10;99.90
20504;DHT22;10410;51.046;6.980;2023-05-10T04:51:22;13.10;99.90
20504;DHT22;10410;51.046;6.980;2023-05-10T04:58:22;13.10;99.90
20504;DHT22;10410;51.046;6.980;2023-05-10T05:05:23;13.10;99.90
20504;DHT22;10410;51.046;6.980;2023-05-10T05:12:23;13.10;99.90
20504;DHT22;10410;51.046;6.980;2023-05-10T05:19:24;13.10;99.90
20504;DHT22;10410;51.046;6.980;2023-05-10T05:26:24;13.10;99.90
20504;DHT22;10410;51.046;6.980;2023-05-10T05:33:25;13.10;99.90
20504;DHT22;10410;51.046;6.980;2023-05-10T05:40:25;13.10;99.90
20504;DHT22;10410;51.046;6.980;2023-05-10T05:47:25;13.20;99.90
20504;DHT22;10410;51.046;6.980;2023-05-10T05:54:26;13.20;99.90
20504;DHT22;10410;51.046;6.980;2023-05-10T06:01:27;13.30;99.90
20504;DHT22;10410;51.046;6.980;2023-05-10T06:08:27;13.30;99.90
20504;DHT22;10410;51.046;6.980;2023-05-10T06:15:28;13.30;99.90
20504;DHT22;10410;51.046;6.980;2023-05-10T06:22:29;13.30;99.90
20504;DHT22;10410;51.046;6.980;2023-05-10T06:29:29;13.20;99.90
20504;DHT22;10410;51.046;6.980;2023-05-10T06:36:30;13.20;99.90
20504;DHT22;10410;51.046;6.980;2023-05-10T06:43:31;13.20;99.90
20504;DHT22;10410;51.046;6.980;2023-05-10T06:50:31;13.20;99.90
20504;DHT22;10410;51.046;6.980;2023-05-10T06:57:32;13.20;99.90
20504;DHT22;10410;51.046;6.980;2023-05-10T07:04:32;13.20;99.90
20504;DHT22;10410;51.046;6.980;2023-05-10T07:11:33;13.20;99.90
20504;DHT22;10410;51.046;6.980;2023-05-10T07:18:34;13.10;99.90
20504;DHT22;10410;51.046;6.980;2023-05-10T07:25:34;13.10;99.90
20504;DHT22;10410;51.046;6.980;2023-05-10T07:32:35;13.10;99.90
20504;DHT22;10410;51.046;6.980;2023-05-10T07:39:35;13.10;99.90
20504;DHT22;10410;51.046;6.980;2023-05-10T07:46:36;13.20;99.90
20504;DHT22;10410;51.046;6.980;2023-05-10T07:53:37;13.20;99.90
20504;DHT22;10410;51.046;6.980;2023-05-10T08:00:37;13.30;99.90
20504;DHT22;10410;51.046;6.980;2023-05-10T08:07:39;13.30;99.90
20504;DHT22;10410;51.046;6.980;2023-05-10T08:14:40;13.40;99.90
20504;DHT22;10410;51.046;6.980;2023-05-10T08:21:40;13.50;99.90
20504;DHT22;10410;51.046;6.980;2023-05-10T08:28:42;13.60;99.90
20504;DHT22;10410;51.046;6.980;2023-05-10T08:35:43;13.70;99.90
20504;DHT22;10410;51.046;6.980;2023-05-10T08:42:51;13.80;99.90
20504;DHT22;10410;51.046;6.980;2023-05-10T08:49:54;13.90;99.90
20504;DHT22;10410;51.046;6.980;2023-05-10T08:56:56;14.00;99.90
20504;DHT22;10410;51.046;6.980;2023-05-10T09:03:56;14.10;99.90
20504;DHT22;10410;51.046;6.980;2023-05-10T09:10:57;14.10;99.90
20504;DHT22;10410;51.046;6.980;2023-05-10T09:17:58;14.20;99.90
20504;DHT22;10410;51.046;6.980;2023-05-10T09:25:11;14.30;99.90
20504;DHT22;10410;51.046;6.980;2023-05-10T09:32:11;14.50;99.90
20504;DHT22;10410;51.046;6.980;2023-05-10T09:39:13;14.60;99.90
20504;DHT22;10410;51.046;6.980;2023-05-10T09:46:14;14.70;99.90
20504;DHT22;10410;51.046;6.980;2023-05-10T09:53:15;14.70;99.90
20504;DHT22;10410;51.046;6.980;2023-05-10T10:00:18;14.70;99.90
20504;DHT22;10410;51.046;6.980;2023-05-10T10:07:23;14.60;99.90
20504;DHT22;10410;51.046;6.980;2023-05-10T10:14:24;14.50;99.90
20504;DHT22;10410;51.046;6.980;2023-05-10T10:21:25;14.50;99.90
20504;DHT22;10410;51.046;6.980;2023-05-10T10:35:34;14.70;99.90
20504;DHT22;10410;51.046;6.980;2023-05-10T10:42:53;14.80;99.90
20504;DHT22;10410;51.046;6.980;2023-05-10T10:57:11;15.10;99.90
20504;DHT22;10410;51.046;6.980;2023-05-10T11:11:14;15.00;99.90
20504;DHT22;10410;51.046;6.980;2023-05-10T11:18:28;15.20;99.90
20504;DHT22;10410;51.046;6.980;2023-05-10T11:25:29;15.40;99.90
20504;DHT22;10410;51.046;6.980;2023-05-10T11:32:30;15.40;99.90
20504;DHT22;10410;51.046;6.980;2023-05-10T11:39:31;15.50;99.90
20504;DHT22;10410;51.046;6.980;2023-05-10T11:46:31;15.50;99.90
20504;DHT22;10410;51.046;6.980;2023-05-10T11:53:32;15.40;99.90
20504;DHT22;10410;51.046;6.980;2023-05-10T12:00:33;15.30;99.90
20504;DHT22;10410;51.046;6.980;2023-05-10T12:07:34;15.20;99.90
20504;DHT22;10410;51.046;6.980;2023-05-10T12:14:35;15.40;99.90
20504;DHT22;10410;51.046;6.980;2023-05-10T12:21:36;15.60;99.90
20504;DHT22;10410;51.046;6.980;2023-05-10T12:28:37;15.90;99.90
20504;DHT22;10410;51.046;6.980;2023-05-10T12:35:52;16.30;99.90
20504;DHT22;10410;51.046;6.980;2023-05-10T12:42:53;16.70;99.90
20504;DHT22;10410;51.046;6.980;2023-05-10T12:49:53;16.80;99.90
20504;DHT22;10410;51.046;6.980;2023-05-10T12:56:54;17.10;99.90
20504;DHT22;10410;51.046;6.980;2023-05-10T13:03:54;17.30;99.90
20504;DHT22;10410;51.046;6.980;2023-05-10T13:10:55;17.60;99.90
20504;DHT22;10410;51.046;6.980;2023-05-10T13:17:55;17.60;99.90
20504;DHT22;10410;51.046;6.980;2023-05-10T13:24:56;17.60;99.90
20504;DHT22;10410;51.046;6.980;2023-05-10T13:31:57;17.70;99.90
20504;DHT22;10410;51.046;6.980;2023-05-10T13:38:57;17.70;99.90
20504;DHT22;10410;51.046;6.980;2023-05-10T13:45:58;18.20;99.90
20504;DHT22;10410;51.046;6.980;2023-05-10T13:52:58;18.80;99.90
20504;DHT22;10410;51.046;6.980;2023-05-10T13:59:59;19.00;99.90
20504;DHT22;10410;51.046;6.980;2023-05-10T14:06:59;19.50;99.90
20504;DHT22;10410;51.046;6.980;2023-05-10T14:14:00;19.60;99.90
20504;DHT22;10410;51.046;6.980;2023-05-10T14:21:02;19.70;99.90
20504;DHT22;10410;51.046;6.980;2023-05-10T14:28:03;19.40;99.90
20504;DHT22;10410;51.046;6.980;2023-05-10T14:35:04;19.60;99.90
20504;DHT22;10410;51.046;6.980;2023-05-10T14:42:06;19.80;99.90
20504;DHT22;10410;51.046;6.980;2023-05-10T14:49:06;19.00;99.90
20504;DHT22;10410;51.046;6.980;2023-05-10T14:56:06;18.60;99.90
20504;DHT22;10410;51.046;6.980;2023-05-10T15:03:07;18.10;99.90
20504;DHT22;10410;51.046;6.980;2023-05-10T15:10:08;18.00;99.90
20504;DHT22;10410;51.046;6.980;2023-05-10T15:17:09;17.80;99.90
20504;DHT22;10410;51.046;6.980;2023-05-10T15:24:10;17.70;99.90
20504;DHT22;10410;51.046;6.980;2023-05-10T15:31:10;17.50;99.90
20504;DHT22;10410;51.046;6.980;2023-05-10T15:38:11;17.30;99.90
20504;DHT22;10410;51.046;6.980;2023-05-10T15:45:12;17.10;99.90
20504;DHT22;10410;51.046;6.980;2023-05-10T15:52:13;17.10;99.90
20504;DHT22;10410;51.046;6.980;2023-05-10T15:59:13;17.10;99.90
20504;DHT22;10410;51.046;6.980;2023-05-10T16:06:14;17.10;99.90
20504;DHT22;10410;51.046;6.980;2023-05-10T16:13:14;17.20;99.90
20504;DHT22;10410;51.046;6.980;2023-05-10T16:20:16;17.10;99.90
20504;DHT22;10410;51.046;6.980;2023-05-10T16:27:16;17.40;99.90
20504;DHT22;10410;51.046;6.980;2023-05-10T16:34:17;17.50;99.90
20504;DHT22;10410;51.046;6.980;2023-05-10T16:41:19;17.50;99.90
20504;DHT22;10410;51.046;6.980;2023-05-10T16:48:20;17.70;99.90
20504;DHT22;10410;51.046;6.980;2023-05-10T16:55:21;17.60;99.90
20504;DHT22;10410;51.046;6.980;2023-05-10T17:02:25;17.50;99.90
20504;DHT22;10410;51.046;6.980;2023-05-10T17:09:25;17.30;99.90
20504;DHT22;10410;51.046;6.980;2023-05-10T17:16:26;17.20;99.90
20504;DHT22;10410;51.046;6.980;2023-05-10T17:23:26;17.00;99.90
20504;DHT22;10410;51.046;6.980;2023-05-10T17:30:28;16.90;99.90
20504;DHT22;10410;51.046;6.980;2023-05-10T17:37:32;16.70;99.90
20504;DHT22;10410;51.046;6.980;2023-05-10T17:44:33;16.50;99.90
20504;DHT22;10410;51.046;6.980;2023-05-10T17:51:33;16.30;99.90
20504;DHT22;10410;51.046;6.980;2023-05-10T17:58:33;16.20;99.90
20504;DHT22;10410;51.046;6.980;2023-05-10T18:05:37;16.30;99.90
20504;DHT22;10410;51.046;6.980;2023-05-10T18:12:38;16.20;99.90
20504;DHT22;10410;51.046;6.980;2023-05-10T18:19:38;16.20;99.90
20504;DHT22;10410;51.046;6.980;2023-05-10T18:26:39;16.10;99.90
20504;DHT22;10410;51.046;6.980;2023-05-10T18:33:39;16.00;99.90
20504;DHT22;10410;51.046;6.980;2023-05-10T18:40:40;15.90;99.90
20504;DHT22;10410;51.046;6.980;2023-05-10T18:47:41;15.90;99.90
20504;DHT22;10410;51.046;6.980;2023-05-10T18:54:41;15.60;99.90
20504;DHT22;10410;51.046;6.980;2023-05-10T19:01:42;15.50;99.90
20504;DHT22;10410;51.046;6.980;2023-05-10T19:08:43;15.30;99.90
20504;DHT22;10410;51.046;6.980;2023-05-10T19:15:43;15.20;99.90
20504;DHT22;10410;51.046;6.980;2023-05-10T19:22:44;15.00;99.90
20504;DHT22;10410;51.046;6.980;2023-05-10T19:30:07;14.90;99.90
20504;DHT22;10410;51.046;6.980;2023-05-10T19:37:07;14.80;99.90
20504;DHT22;10410;51.046;6.980;2023-05-10T19:44:07;14.80;99.90
20504;DHT22;10410;51.046;6.980;2023-05-10T19:51:08;14.70;99.90
20504;DHT22;10410;51.046;6.980;2023-05-10T19:58:09;14.70;99.90
20504;DHT22;10410;51.046;6.980;2023-05-10T20:05:10;14.60;99.90
20504;DHT22;10410;51.046;6.980;2023-05-10T20:12:10;14.50;99.90
20504;DHT22;10410;51.046;6.980;2023-05-10T20:19:11;14.40;99.90
20504;DHT22;10410;51.046;6.980;2023-05-10T20:26:12;14.30;99.90
20504;DHT22;10410;51.046;6.980;2023-05-10T20:33:13;14.20;99.90
20504;DHT22;10410;51.046;6.980;2023-05-10T20:40:14;14.10;99.90
20504;DHT22;10410;51.046;6.980;2023-05-10T20:47:16;14.00;99.90
20504;DHT22;10410;51.046;6.980;2023-05-10T20:54:17;13.90;99.90
20504;DHT22;10410;51.046;6.980;2023-05-10T21:01:17;13.90;99.90
20504;DHT22;10410;51.046;6.980;2023-05-10T21:08:18;13.80;99.90
20504;DHT22;10410;51.046;6.980;2023-05-10T21:15:18;13.80;99.90
20504;DHT22;10410;51.046;6.980;2023-05-10T21:22:19;13.70;99.90
20504;DHT22;10410;51.046;6.980;2023-05-10T21:29:19;13.70;99.90
20504;DHT22;10410;51.046;6.980;2023-05-10T21:36:19;13.60;99.90
20504;DHT22;10410;51.046;6.980;2023-05-10T21:43:20;13.60;99.90
20504;DHT22;10410;51.046;6.980;2023-05-10T21:50:20;13.60;99.90
20504;DHT22;10410;51.046;6.980;2023-05-10T21:57:22;13.50;99.90
20504;DHT22;10410;51.046;6.980;2023-05-10T22:04:22;13.50;99.90
20504;DHT22;10410;51.046;6.980;2023-05-10T22:11:23;13.50;99.90
20504;DHT22;10410;51.046;6.980;2023-05-10T22:18:23;13.50;99.90
20504;DHT22;10410;51.046;6.980;2023-05-10T22:25:24;13.40;99.90
20504;DHT22;10410;51.046;6.980;2023-05-10T22:32:25;13.40;99.90
20504;DHT22;10410;51.046;6.980;2023-05-10T22:39:25;13.40;99.90
20504;DHT22;10410;51.046;6.980;2023-05-10T22:46:26;13.40;99.90
20504;DHT22;10410;51.046;6.980;2023-05-10T22:53:26;13.40;99.90
20504;DHT22;10410;51.046;6.980;2023-05-10T23:00:27;13.30;99.90
20504;DHT22;10410;51.046;6.980;2023-05-10T23:07:27;13.20;99.90
20504;DHT22;10410;51.046;6.980;2023-05-10T23:14:28;13.20;99.90
20504;DHT22;10410;51.046;6.980;2023-05-10T23:21:28;13.20;99.90
20504;DHT22;10410;51.046;6.980;2023-05-10T23:28:31;13.20;99.90
20504;DHT22;10410;51.046;6.980;2023-05-10T23:35:31;13.20;99.90
20504;DHT22;10410;51.046;6.980;2023-05-10T23:42:32;13.20;99.90
20504;DHT22;10410;51.046;6.980;2023-05-10T23:49:32;13.20;99.90
20504;DHT22;10410;51.046;6.980;2023-05-10T23:56:33;13.30;99.90
